sensor_id;sensor_type;location;lat;lon;timestamp;P1;durP1;ratioP1;P2;durP2;ratioP2
13197;SDS011;6664;52.514;13.440;2022-09-29T05:41:08;10.20;;;7.20;;
13197;SDS011;6664;52.514;13.440;2022-09-29T05:47:25;8.70;;;6.60;;
13197;SDS011;6664;52.514;13.440;2022-09-29T05:49:52;10.27;;;6.70;;
13197;SDS011;6664;52.514;13.440;2022-09-29T05:52:21;9.30;;;6.47;;
13197;SDS011;6664;52.514;13.440;2022-09-29T05:54:48;10.60;;;6.27;;
13197;SDS011;6664;52.514;13.440;2022-09-29T05:57:17;9.53;;;6.20;;
13197;SDS011;6664;52.514;13.440;2022-09-29T05:59:46;9.80;;;6.70;;
13197;SDS011;6664;52.514;13.440;2022-09-29T06:02:13;17.80;;;7.70;;
13197;SDS011;6664;52.514;13.440;2022-09-29T06:04:41;13.20;;;7.30;;
13197;SDS011;6664;52.514;13.440;2022-09-29T06:07:08;8.90;;;7.30;;
13197;SDS011;6664;52.514;13.440;2022-09-29T06:09:34;13.27;;;7.40;;
13197;SDS011;6664;52.514;13.440;2022-09-29T06:12:02;10.87;;;6.60;;
13197;SDS011;6664;52.514;13.440;2022-09-29T06:14:29;9.60;;;6.77;;
13197;SDS011;6664;52.514;13.440;2022-09-29T06:16:55;9.40;;;6.20;;
13197;SDS011;6664;52.514;13.440;2022-09-29T06:19:22;10.77;;;7.50;;
13197;SDS011;6664;52.514;13.440;2022-09-29T06:21:49;7.70;;;6.13;;
13197;SDS011;6664;52.514;13.440;2022-09-29T06:24:16;9.60;;;6.97;;
13197;SDS011;6664;52.514;13.440;2022-09-29T06:26:45;10.53;;;7.17;;
13197;SDS011;6664;52.514;13.440;2022-09-29T06:29:14;10.47;;;7.60;;
13197;SDS011;6664;52.514;13.440;2022-09-29T06:31:44;9.97;;;6.70;;
13197;SDS011;6664;52.514;13.440;2022-09-29T06:34:11;8.50;;;5.83;;
13197;SDS011;6664;52.514;13.440;2022-09-29T06:39:24;9.20;;;6.07;;
13197;SDS011;6664;52.514;13.440;2022-09-29T06:41:52;10.87;;;6.87;;
13197;SDS011;6664;52.514;13.440;2022-09-29T06:44:22;9.57;;;6.97;;
13197;SDS011;6664;52.514;13.440;2022-09-29T06:46:53;8.57;;;5.60;;
13197;SDS011;6664;52.514;13.440;2022-09-29T06:49:20;9.50;;;7.07;;
13197;SDS011;6664;52.514;13.440;2022-09-29T06:51:50;8.63;;;6.57;;
13197;SDS011;6664;52.514;13.440;2022-09-29T06:54:18;11.03;;;6.77;;
13197;SDS011;6664;52.514;13.440;2022-09-29T06:56:51;12.60;;;7.83;;
13197;SDS011;6664;52.514;13.440;2022-09-29T06:59:24;9.37;;;6.30;;
13197;SDS011;6664;52.514;13.440;2022-09-29T07:01:51;8.97;;;6.20;;
13197;SDS011;6664;52.514;13.440;2022-09-29T07:04:18;8.90;;;6.83;;
13197;SDS011;6664;52.514;13.440;2022-09-29T07:06:47;15.10;;;6.73;;
13197;SDS011;6664;52.514;13.440;2022-09-29T07:09:15;10.00;;;6.90;;
13197;SDS011;6664;52.514;13.440;2022-09-29T07:11:48;9.83;;;6.30;;
13197;SDS011;6664;52.514;13.440;2022-09-29T07:14:18;12.20;;;7.77;;
13197;SDS011;6664;52.514;13.440;2022-09-29T07:16:48;11.37;;;7.00;;
13197;SDS011;6664;52.514;13.440;2022-09-29T07:19:18;10.43;;;7.00;;
13197;SDS011;6664;52.514;13.440;2022-09-29T07:21:48;11.70;;;7.73;;
13197;SDS011;6664;52.514;13.440;2022-09-29T07:24:15;10.77;;;6.83;;
13197;SDS011;6664;52.514;13.440;2022-09-29T07:26:44;12.37;;;8.07;;
13197;SDS011;6664;52.514;13.440;2022-09-29T07:29:11;10.80;;;7.00;;
13197;SDS011;6664;52.514;13.440;2022-09-29T07:31:41;10.00;;;7.43;;
13197;SDS011;6664;52.514;13.440;2022-09-29T07:34:17;13.23;;;6.90;;
13197;SDS011;6664;52.514;13.440;2022-09-29T07:36:44;11.67;;;7.73;;
13197;SDS011;6664;52.514;13.440;2022-09-29T07:39:11;10.37;;;7.90;;
13197;SDS011;6664;52.514;13.440;2022-09-29T07:41:41;11.80;;;7.40;;
13197;SDS011;6664;52.514;13.440;2022-09-29T07:44:08;13.67;;;8.40;;
13197;SDS011;6664;52.514;13.440;2022-09-29T07:46:35;9.90;;;6.97;;
13197;SDS011;6664;52.514;13.440;2022-09-29T07:49:02;9.00;;;6.70;;
13197;SDS011;6664;52.514;13.440;2022-09-29T07:51:29;14.17;;;7.97;;
13197;SDS011;6664;52.514;13.440;2022-09-29T07:53:59;13.63;;;7.50;;
13197;SDS011;6664;52.514;13.440;2022-09-29T07:56:27;14.57;;;7.90;;
13197;SDS011;6664;52.514;13.440;2022-09-29T07:58:54;12.03;;;8.17;;
13197;SDS011;6664;52.514;13.440;2022-09-29T08:01:23;15.20;;;8.43;;
13197;SDS011;6664;52.514;13.440;2022-09-29T08:03:53;12.07;;;7.63;;
13197;SDS011;6664;52.514;13.440;2022-09-29T08:06:21;14.73;;;8.10;;
13197;SDS011;6664;52.514;13.440;2022-09-29T08:08:51;12.47;;;8.30;;
13197;SDS011;6664;52.514;13.440;2022-09-29T08:11:30;17.93;;;8.37;;
13197;SDS011;6664;52.514;13.440;2022-09-29T08:14:02;10.80;;;7.53;;
13197;SDS011;6664;52.514;13.440;2022-09-29T08:16:29;10.30;;;7.97;;
13197;SDS011;6664;52.514;13.440;2022-09-29T08:18:58;12.63;;;8.13;;
13197;SDS011;6664;52.514;13.440;2022-09-29T08:21:26;10.40;;;7.87;;
13197;SDS011;6664;52.514;13.440;2022-09-29T08:23:55;14.13;;;8.03;;
13197;SDS011;6664;52.514;13.440;2022-09-29T08:26:22;10.20;;;6.97;;
13197;SDS011;6664;52.514;13.440;2022-09-29T08:29:06;16.10;;;8.50;;
13197;SDS011;6664;52.514;13.440;2022-09-29T08:31:41;12.37;;;7.97;;
13197;SDS011;6664;52.514;13.440;2022-09-29T08:34:09;11.87;;;7.73;;
13197;SDS011;6664;52.514;13.440;2022-09-29T08:36:36;17.17;;;8.57;;
13197;SDS011;6664;52.514;13.440;2022-09-29T08:39:08;16.40;;;8.37;;
13197;SDS011;6664;52.514;13.440;2022-09-29T08:44:34;10.40;;;6.67;;
13197;SDS011;6664;52.514;13.440;2022-09-29T08:47:44;11.73;;;8.07;;
13197;SDS011;6664;52.514;13.440;2022-09-29T08:50:36;11.90;;;8.20;;
13197;SDS011;6664;52.514;13.440;2022-09-29T08:53:13;11.80;;;7.50;;
13197;SDS011;6664;52.514;13.440;2022-09-29T08:55:56;12.00;;;8.10;;
13197;SDS011;6664;52.514;13.440;2022-09-29T08:58:30;12.23;;;7.97;;
13197;SDS011;6664;52.514;13.440;2022-09-29T09:04:01;12.37;;;8.23;;
13197;SDS011;6664;52.514;13.440;2022-09-29T09:09:55;12.40;;;7.80;;
13197;SDS011;6664;52.514;13.440;2022-09-29T09:23:52;11.93;;;8.10;;
13197;SDS011;6664;52.514;13.440;2022-09-29T09:26:39;17.90;;;8.00;;
13197;SDS011;6664;52.514;13.440;2022-09-29T09:29:28;11.20;;;7.67;;
13197;SDS011;6664;52.514;13.440;2022-09-29T09:32:10;10.13;;;7.17;;
13197;SDS011;6664;52.514;13.440;2022-09-29T09:34:48;8.73;;;6.40;;
13197;SDS011;6664;52.514;13.440;2022-09-29T09:37:27;8.97;;;6.47;;
13197;SDS011;6664;52.514;13.440;2022-09-29T09:40:12;11.63;;;6.63;;
13197;SDS011;6664;52.514;13.440;2022-09-29T09:42:49;11.67;;;7.33;;
13197;SDS011;6664;52.514;13.440;2022-09-29T09:45:30;9.80;;;6.80;;
13197;SDS011;6664;52.514;13.440;2022-09-29T09:50:47;9.53;;;6.70;;
13197;SDS011;6664;52.514;13.440;2022-09-29T09:56:15;11.90;;;6.80;;
13197;SDS011;6664;52.514;13.440;2022-09-29T10:01:34;6.13;;;5.50;;
13197;SDS011;6664;52.514;13.440;2022-09-29T10:04:04;9.17;;;6.50;;
13197;SDS011;6664;52.514;13.440;2022-09-29T10:06:32;10.60;;;6.77;;
13197;SDS011;6664;52.514;13.440;2022-09-29T10:08:59;8.80;;;6.30;;
13197;SDS011;6664;52.514;13.440;2022-09-29T10:11:30;9.60;;;6.63;;
13197;SDS011;6664;52.514;13.440;2022-09-29T10:14:01;10.50;;;6.20;;
13197;SDS011;6664;52.514;13.440;2022-09-29T10:16:43;10.43;;;6.57;;
13197;SDS011;6664;52.514;13.440;2022-09-29T10:22:22;9.30;;;7.10;;
13197;SDS011;6664;52.514;13.440;2022-09-29T10:24:53;9.60;;;6.47;;
13197;SDS011;6664;52.514;13.440;2022-09-29T10:27:50;7.70;;;5.80;;
13197;SDS011;6664;52.514;13.440;2022-09-29T10:30:23;6.57;;;5.77;;
13197;SDS011;6664;52.514;13.440;2022-09-29T10:33:00;5.70;;;4.43;;
13197;SDS011;6664;52.514;13.440;2022-09-29T10:35:34;7.47;;;5.50;;
13197;SDS011;6664;52.514;13.440;2022-09-29T10:38:05;5.80;;;4.70;;
13197;SDS011;6664;52.514;13.440;2022-09-29T10:40:55;6.63;;;4.87;;
13197;SDS011;6664;52.514;13.440;2022-09-29T10:43:35;6.40;;;5.30;;
13197;SDS011;6664;52.514;13.440;2022-09-29T10:46:04;7.27;;;5.07;;
13197;SDS011;6664;52.514;13.440;2022-09-29T10:54:52;5.80;;;4.00;;
13197;SDS011;6664;52.514;13.440;2022-09-29T10:57:25;5.27;;;4.63;;
13197;SDS011;6664;52.514;13.440;2022-09-29T10:59:54;4.33;;;3.93;;
13197;SDS011;6664;52.514;13.440;2022-09-29T11:02:40;5.57;;;4.40;;
13197;SDS011;6664;52.514;13.440;2022-09-29T11:05:16;7.43;;;3.87;;
13197;SDS011;6664;52.514;13.440;2022-09-29T11:07:48;4.60;;;4.13;;
13197;SDS011;6664;52.514;13.440;2022-09-29T11:10:36;4.10;;;3.20;;
13197;SDS011;6664;52.514;13.440;2022-09-29T11:15:45;5.63;;;4.00;;
13197;SDS011;6664;52.514;13.440;2022-09-29T11:18:21;4.13;;;3.80;;
13197;SDS011;6664;52.514;13.440;2022-09-29T11:23:59;5.40;;;4.03;;
13197;SDS011;6664;52.514;13.440;2022-09-29T11:26:36;4.73;;;3.63;;
13197;SDS011;6664;52.514;13.440;2022-09-29T11:29:12;5.50;;;4.87;;
13197;SDS011;6664;52.514;13.440;2022-09-29T11:37:25;5.03;;;3.60;;
13197;SDS011;6664;52.514;13.440;2022-09-29T11:51:12;4.90;;;3.00;;
13197;SDS011;6664;52.514;13.440;2022-09-29T11:56:48;3.37;;;3.07;;
13197;SDS011;6664;52.514;13.440;2022-09-29T12:13:29;6.63;;;3.83;;
13197;SDS011;6664;52.514;13.440;2022-09-29T12:16:17;5.53;;;3.77;;
13197;SDS011;6664;52.514;13.440;2022-09-29T12:21:20;4.53;;;3.30;;
13197;SDS011;6664;52.514;13.440;2022-09-29T12:24:41;3.27;;;3.03;;
13197;SDS011;6664;52.514;13.440;2022-09-29T12:27:18;5.73;;;3.40;;
13197;SDS011;6664;52.514;13.440;2022-09-29T12:29:55;5.47;;;2.93;;
13197;SDS011;6664;52.514;13.440;2022-09-29T12:37:39;3.50;;;2.83;;
13197;SDS011;6664;52.514;13.440;2022-09-29T12:51:59;2.77;;;2.57;;
13197;SDS011;6664;52.514;13.440;2022-09-29T12:54:38;3.13;;;2.43;;
13197;SDS011;6664;52.514;13.440;2022-09-29T12:57:23;2.60;;;2.40;;
13197;SDS011;6664;52.514;13.440;2022-09-29T13:00:06;3.10;;;2.80;;
13197;SDS011;6664;52.514;13.440;2022-09-29T13:08:40;6.40;;;2.60;;
13197;SDS011;6664;52.514;13.440;2022-09-29T13:20:00;2.10;;;2.00;;
13197;SDS011;6664;52.514;13.440;2022-09-29T13:28:58;1.92;;;1.83;;
13197;SDS011;6664;52.514;13.440;2022-09-29T13:31:30;1.47;;;1.40;;
13197;SDS011;6664;52.514;13.440;2022-09-29T13:34:04;1.50;;;1.40;;
13197;SDS011;6664;52.514;13.440;2022-09-29T13:36:44;6.40;;;2.17;;
13197;SDS011;6664;52.514;13.440;2022-09-29T13:39:20;2.43;;;1.70;;
13197;SDS011;6664;52.514;13.440;2022-09-29T13:41:56;2.30;;;1.63;;
13197;SDS011;6664;52.514;13.440;2022-09-29T13:47:45;1.70;;;1.60;;
13197;SDS011;6664;52.514;13.440;2022-09-29T13:54:12;3.80;;;1.93;;
13197;SDS011;6664;52.514;13.440;2022-09-29T13:58:29;1.80;;;1.60;;
13197;SDS011;6664;52.514;13.440;2022-09-29T14:01:01;1.43;;;1.33;;
13197;SDS011;6664;52.514;13.440;2022-09-29T14:03:34;1.70;;;1.60;;
13197;SDS011;6664;52.514;13.440;2022-09-29T14:06:18;2.90;;;2.27;;
13197;SDS011;6664;52.514;13.440;2022-09-29T14:09:07;1.77;;;1.67;;
13197;SDS011;6664;52.514;13.440;2022-09-29T14:11:56;2.20;;;2.00;;
13197;SDS011;6664;52.514;13.440;2022-09-29T14:14:33;1.77;;;1.67;;
13197;SDS011;6664;52.514;13.440;2022-09-29T14:30:38;1.67;;;1.57;;
13197;SDS011;6664;52.514;13.440;2022-09-29T14:35:48;2.30;;;1.73;;
13197;SDS011;6664;52.514;13.440;2022-09-29T14:41:38;2.00;;;1.77;;
13197;SDS011;6664;52.514;13.440;2022-09-29T14:44:26;3.60;;;1.70;;
13197;SDS011;6664;52.514;13.440;2022-09-29T14:47:41;1.63;;;1.50;;
13197;SDS011;6664;52.514;13.440;2022-09-29T14:51:21;2.00;;;1.60;;
13197;SDS011;6664;52.514;13.440;2022-09-29T14:56:33;1.80;;;1.70;;
13197;SDS011;6664;52.514;13.440;2022-09-29T15:02:02;1.23;;;1.13;;
13197;SDS011;6664;52.514;13.440;2022-09-29T15:04:43;1.20;;;1.10;;
13197;SDS011;6664;52.514;13.440;2022-09-29T15:07:18;4.77;;;1.60;;
13197;SDS011;6664;52.514;13.440;2022-09-29T15:12:21;2.10;;;1.70;;
13197;SDS011;6664;52.514;13.440;2022-09-29T15:14:52;1.40;;;1.23;;
13197;SDS011;6664;52.514;13.440;2022-09-29T15:25:33;1.30;;;1.20;;
13197;SDS011;6664;52.514;13.440;2022-09-29T15:28:13;1.43;;;1.33;;
13197;SDS011;6664;52.514;13.440;2022-09-29T15:30:41;2.37;;;1.40;;
13197;SDS011;6664;52.514;13.440;2022-09-29T15:35:51;1.47;;;1.37;;
13197;SDS011;6664;52.514;13.440;2022-09-29T15:40:55;1.53;;;1.43;;
13197;SDS011;6664;52.514;13.440;2022-09-29T15:43:29;1.70;;;1.60;;
13197;SDS011;6664;52.514;13.440;2022-09-29T15:46:22;1.90;;;1.80;;
13197;SDS011;6664;52.514;13.440;2022-09-29T15:51:29;1.87;;;1.67;;
13197;SDS011;6664;52.514;13.440;2022-09-29T15:53:57;2.10;;;1.53;;
13197;SDS011;6664;52.514;13.440;2022-09-29T15:56:30;3.07;;;1.53;;
13197;SDS011;6664;52.514;13.440;2022-09-29T15:59:20;3.93;;;1.47;;
13197;SDS011;6664;52.514;13.440;2022-09-29T16:02:10;1.80;;;1.70;;
13197;SDS011;6664;52.514;13.440;2022-09-29T16:04:50;1.40;;;1.30;;
13197;SDS011;6664;52.514;13.440;2022-09-29T16:07:24;1.70;;;1.60;;
13197;SDS011;6664;52.514;13.440;2022-09-29T16:09:56;1.47;;;1.37;;
13197;SDS011;6664;52.514;13.440;2022-09-29T16:12:31;1.70;;;1.60;;
13197;SDS011;6664;52.514;13.440;2022-09-29T16:15:02;2.33;;;1.93;;
13197;SDS011;6664;52.514;13.440;2022-09-29T16:17:30;1.77;;;1.67;;
13197;SDS011;6664;52.514;13.440;2022-09-29T16:19:57;1.40;;;1.30;;
13197;SDS011;6664;52.514;13.440;2022-09-29T16:22:25;2.00;;;1.30;;
13197;SDS011;6664;52.514;13.440;2022-09-29T16:24:54;2.70;;;1.60;;
13197;SDS011;6664;52.514;13.440;2022-09-29T16:30:27;1.73;;;1.63;;
13197;SDS011;6664;52.514;13.440;2022-09-29T16:33:00;1.70;;;1.60;;
13197;SDS011;6664;52.514;13.440;2022-09-29T16:35:38;1.40;;;1.30;;
13197;SDS011;6664;52.514;13.440;2022-09-29T16:38:53;1.80;;;1.63;;
13197;SDS011;6664;52.514;13.440;2022-09-29T16:44:14;7.00;;;2.00;;
13197;SDS011;6664;52.514;13.440;2022-09-29T16:49:27;2.00;;;1.90;;
13197;SDS011;6664;52.514;13.440;2022-09-29T16:52:10;2.03;;;1.80;;
13197;SDS011;6664;52.514;13.440;2022-09-29T16:54:48;2.20;;;2.00;;
13197;SDS011;6664;52.514;13.440;2022-09-29T16:59:56;5.63;;;2.23;;
13197;SDS011;6664;52.514;13.440;2022-09-29T17:02:27;2.90;;;2.20;;
13197;SDS011;6664;52.514;13.440;2022-09-29T17:04:54;2.60;;;2.20;;
13197;SDS011;6664;52.514;13.440;2022-09-29T17:07:23;3.73;;;2.50;;
13197;SDS011;6664;52.514;13.440;2022-09-29T17:09:52;3.30;;;2.80;;
13197;SDS011;6664;52.514;13.440;2022-09-29T17:12:29;3.57;;;3.23;;
13197;SDS011;6664;52.514;13.440;2022-09-29T17:14:58;3.37;;;2.93;;
13197;SDS011;6664;52.514;13.440;2022-09-29T17:17:26;3.33;;;3.10;;
13197;SDS011;6664;52.514;13.440;2022-09-29T17:19:56;3.93;;;3.13;;
13197;SDS011;6664;52.514;13.440;2022-09-29T17:22:33;3.03;;;2.70;;
13197;SDS011;6664;52.514;13.440;2022-09-29T17:25:02;3.10;;;2.90;;
13197;SDS011;6664;52.514;13.440;2022-09-29T17:27:30;3.37;;;2.90;;
13197;SDS011;6664;52.514;13.440;2022-09-29T17:30:18;3.33;;;3.03;;
13197;SDS011;6664;52.514;13.440;2022-09-29T17:32:48;3.20;;;2.80;;
13197;SDS011;6664;52.514;13.440;2022-09-29T17:35:19;3.87;;;3.40;;
13197;SDS011;6664;52.514;13.440;2022-09-29T17:37:52;3.63;;;3.17;;
13197;SDS011;6664;52.514;13.440;2022-09-29T17:43:16;3.57;;;3.20;;
13197;SDS011;6664;52.514;13.440;2022-09-29T17:45:43;6.10;;;3.73;;
13197;SDS011;6664;52.514;13.440;2022-09-29T17:48:11;3.53;;;3.23;;
13197;SDS011;6664;52.514;13.440;2022-09-29T17:50:43;7.70;;;6.30;;
13197;SDS011;6664;52.514;13.440;2022-09-29T17:53:12;3.40;;;3.10;;
13197;SDS011;6664;52.514;13.440;2022-09-29T17:55:40;4.80;;;3.70;;
13197;SDS011;6664;52.514;13.440;2022-09-29T17:58:11;6.07;;;3.90;;
13197;SDS011;6664;52.514;13.440;2022-09-29T18:00:45;6.23;;;4.00;;
13197;SDS011;6664;52.514;13.440;2022-09-29T18:03:15;4.00;;;3.70;;
13197;SDS011;6664;52.514;13.440;2022-09-29T18:05:47;4.20;;;3.07;;
13197;SDS011;6664;52.514;13.440;2022-09-29T18:08:21;3.90;;;3.60;;
13197;SDS011;6664;52.514;13.440;2022-09-29T18:10:54;3.97;;;3.67;;
13197;SDS011;6664;52.514;13.440;2022-09-29T18:13:23;4.13;;;3.73;;
13197;SDS011;6664;52.514;13.440;2022-09-29T18:15:53;3.73;;;3.43;;
13197;SDS011;6664;52.514;13.440;2022-09-29T18:18:23;4.70;;;3.90;;
13197;SDS011;6664;52.514;13.440;2022-09-29T18:20:53;9.23;;;4.13;;
13197;SDS011;6664;52.514;13.440;2022-09-29T18:23:22;4.10;;;3.70;;
13197;SDS011;6664;52.514;13.440;2022-09-29T18:25:50;4.50;;;4.10;;
13197;SDS011;6664;52.514;13.440;2022-09-29T18:28:18;5.30;;;3.97;;
13197;SDS011;6664;52.514;13.440;2022-09-29T18:30:46;5.77;;;4.30;;
13197;SDS011;6664;52.514;13.440;2022-09-29T18:33:16;6.10;;;4.60;;
13197;SDS011;6664;52.514;13.440;2022-09-29T18:35:50;6.20;;;4.63;;
13197;SDS011;6664;52.514;13.440;2022-09-29T18:38:19;6.30;;;4.90;;
13197;SDS011;6664;52.514;13.440;2022-09-29T18:40:52;5.10;;;4.53;;
13197;SDS011;6664;52.514;13.440;2022-09-29T18:43:23;5.57;;;4.60;;
13197;SDS011;6664;52.514;13.440;2022-09-29T18:45:53;6.67;;;5.30;;
13197;SDS011;6664;52.514;13.440;2022-09-29T18:48:21;5.63;;;5.10;;
13197;SDS011;6664;52.514;13.440;2022-09-29T18:50:50;7.80;;;5.37;;
13197;SDS011;6664;52.514;13.440;2022-09-29T18:53:24;7.87;;;6.00;;
13197;SDS011;6664;52.514;13.440;2022-09-29T18:55:53;10.10;;;5.90;;
13197;SDS011;6664;52.514;13.440;2022-09-29T18:58:22;6.90;;;5.30;;
13197;SDS011;6664;52.514;13.440;2022-09-29T19:00:52;7.20;;;5.17;;
13197;SDS011;6664;52.514;13.440;2022-09-29T19:03:25;8.63;;;5.43;;
13197;SDS011;6664;52.514;13.440;2022-09-29T19:05:53;7.10;;;4.73;;
13197;SDS011;6664;52.514;13.440;2022-09-29T19:08:21;8.47;;;6.17;;
13197;SDS011;6664;52.514;13.440;2022-09-29T19:13:17;7.93;;;5.63;;
13197;SDS011;6664;52.514;13.440;2022-09-29T19:15:46;6.97;;;5.60;;
13197;SDS011;6664;52.514;13.440;2022-09-29T19:18:18;6.40;;;5.33;;
13197;SDS011;6664;52.514;13.440;2022-09-29T19:20:53;8.07;;;6.10;;
13197;SDS011;6664;52.514;13.440;2022-09-29T19:23:24;8.07;;;6.10;;
13197;SDS011;6664;52.514;13.440;2022-09-29T19:25:53;8.30;;;5.57;;
13197;SDS011;6664;52.514;13.440;2022-09-29T19:28:26;7.70;;;5.67;;
13197;SDS011;6664;52.514;13.440;2022-09-29T19:30:54;8.70;;;5.63;;
13197;SDS011;6664;52.514;13.440;2022-09-29T19:33:32;5.57;;;4.30;;
13197;SDS011;6664;52.514;13.440;2022-09-29T19:36:01;10.17;;;5.80;;
13197;SDS011;6664;52.514;13.440;2022-09-29T19:38:30;7.47;;;5.80;;
13197;SDS011;6664;52.514;13.440;2022-09-29T19:40:59;7.87;;;6.50;;
13197;SDS011;6664;52.514;13.440;2022-09-29T19:43:26;9.97;;;5.87;;
13197;SDS011;6664;52.514;13.440;2022-09-29T19:45:53;9.53;;;5.80;;
13197;SDS011;6664;52.514;13.440;2022-09-29T19:48:21;8.80;;;6.53;;
13197;SDS011;6664;52.514;13.440;2022-09-29T19:50:57;9.03;;;6.33;;
13197;SDS011;6664;52.514;13.440;2022-09-29T19:53:43;8.80;;;5.93;;
13197;SDS011;6664;52.514;13.440;2022-09-29T19:56:15;10.03;;;7.47;;
13197;SDS011;6664;52.514;13.440;2022-09-29T19:58:42;10.50;;;7.13;;
13197;SDS011;6664;52.514;13.440;2022-09-29T20:01:11;7.40;;;5.33;;
13197;SDS011;6664;52.514;13.440;2022-09-29T20:03:38;9.27;;;5.93;;
13197;SDS011;6664;52.514;13.440;2022-09-29T20:06:08;8.07;;;6.87;;
13197;SDS011;6664;52.514;13.440;2022-09-29T20:08:35;7.10;;;6.10;;
13197;SDS011;6664;52.514;13.440;2022-09-29T20:11:05;9.43;;;5.90;;
13197;SDS011;6664;52.514;13.440;2022-09-29T20:13:36;9.07;;;6.60;;
13197;SDS011;6664;52.514;13.440;2022-09-29T20:16:05;7.67;;;6.70;;
13197;SDS011;6664;52.514;13.440;2022-09-29T20:18:34;8.20;;;6.30;;
13197;SDS011;6664;52.514;13.440;2022-09-29T20:21:06;7.60;;;5.97;;
13197;SDS011;6664;52.514;13.440;2022-09-29T20:23:35;10.77;;;6.80;;
13197;SDS011;6664;52.514;13.440;2022-09-29T20:26:05;9.37;;;6.40;;
13197;SDS011;6664;52.514;13.440;2022-09-29T20:28:35;9.13;;;6.90;;
13197;SDS011;6664;52.514;13.440;2022-09-29T20:31:05;14.53;;;8.27;;
13197;SDS011;6664;52.514;13.440;2022-09-29T20:33:34;8.40;;;6.50;;
13197;SDS011;6664;52.514;13.440;2022-09-29T20:36:01;8.60;;;7.30;;
13197;SDS011;6664;52.514;13.440;2022-09-29T20:38:30;9.80;;;6.77;;
13197;SDS011;6664;52.514;13.440;2022-09-29T20:40:59;10.70;;;7.40;;
13197;SDS011;6664;52.514;13.440;2022-09-29T20:43:29;12.27;;;6.50;;
13197;SDS011;6664;52.514;13.440;2022-09-29T20:46:05;12.23;;;7.13;;
13197;SDS011;6664;52.514;13.440;2022-09-29T20:48:34;9.90;;;7.00;;
13197;SDS011;6664;52.514;13.440;2022-09-29T20:51:02;9.90;;;7.50;;
13197;SDS011;6664;52.514;13.440;2022-09-29T20:53:31;13.00;;;6.70;;
13197;SDS011;6664;52.514;13.440;2022-09-29T20:56:01;8.70;;;6.80;;
13197;SDS011;6664;52.514;13.440;2022-09-29T20:58:29;10.13;;;7.27;;
13197;SDS011;6664;52.514;13.440;2022-09-29T21:01:07;9.53;;;7.30;;
13197;SDS011;6664;52.514;13.440;2022-09-29T21:03:54;13.20;;;8.87;;
13197;SDS011;6664;52.514;13.440;2022-09-29T21:06:32;9.53;;;7.50;;
13197;SDS011;6664;52.514;13.440;2022-09-29T21:09:02;13.80;;;8.27;;
13197;SDS011;6664;52.514;13.440;2022-09-29T21:11:33;13.40;;;8.00;;
13197;SDS011;6664;52.514;13.440;2022-09-29T21:14:08;10.33;;;7.40;;
13197;SDS011;6664;52.514;13.440;2022-09-29T21:16:37;15.03;;;8.07;;
13197;SDS011;6664;52.514;13.440;2022-09-29T21:19:08;10.70;;;7.47;;
13197;SDS011;6664;52.514;13.440;2022-09-29T21:21:35;11.37;;;7.57;;
13197;SDS011;6664;52.514;13.440;2022-09-29T21:24:07;8.10;;;6.57;;
13197;SDS011;6664;52.514;13.440;2022-09-29T21:26:34;12.47;;;8.10;;
13197;SDS011;6664;52.514;13.440;2022-09-29T21:29:04;9.33;;;8.00;;
13197;SDS011;6664;52.514;13.440;2022-09-29T21:31:33;10.63;;;7.30;;
13197;SDS011;6664;52.514;13.440;2022-09-29T21:34:04;8.87;;;7.37;;
13197;SDS011;6664;52.514;13.440;2022-09-29T21:36:33;11.60;;;7.80;;
13197;SDS011;6664;52.514;13.440;2022-09-29T21:39:01;11.63;;;8.03;;
13197;SDS011;6664;52.514;13.440;2022-09-29T21:41:38;10.37;;;7.00;;
13197;SDS011;6664;52.514;13.440;2022-09-29T21:44:15;10.20;;;8.53;;
13197;SDS011;6664;52.514;13.440;2022-09-29T21:46:45;10.40;;;7.97;;
13197;SDS011;6664;52.514;13.440;2022-09-29T21:49:15;8.10;;;7.07;;
13197;SDS011;6664;52.514;13.440;2022-09-29T21:51:46;10.00;;;7.20;;
13197;SDS011;6664;52.514;13.440;2022-09-29T21:54:15;13.20;;;8.80;;
13197;SDS011;6664;52.514;13.440;2022-09-29T21:56:47;10.43;;;8.17;;
13197;SDS011;6664;52.514;13.440;2022-09-29T21:59:15;8.73;;;7.43;;
13197;SDS011;6664;52.514;13.440;2022-09-29T22:01:47;13.37;;;8.40;;
13197;SDS011;6664;52.514;13.440;2022-09-29T22:04:14;11.00;;;7.80;;
13197;SDS011;6664;52.514;13.440;2022-09-29T22:06:41;11.57;;;8.67;;
13197;SDS011;6664;52.514;13.440;2022-09-29T22:09:11;12.80;;;8.97;;
13197;SDS011;6664;52.514;13.440;2022-09-29T22:11:41;10.40;;;7.50;;
13197;SDS011;6664;52.514;13.440;2022-09-29T22:14:09;13.57;;;8.80;;
13197;SDS011;6664;52.514;13.440;2022-09-29T22:16:39;13.67;;;8.37;;
13197;SDS011;6664;52.514;13.440;2022-09-29T22:19:09;10.60;;;8.27;;
13197;SDS011;6664;52.514;13.440;2022-09-29T22:21:49;12.47;;;7.63;;
13197;SDS011;6664;52.514;13.440;2022-09-29T22:24:16;12.70;;;8.60;;
13197;SDS011;6664;52.514;13.440;2022-09-29T22:26:43;11.63;;;8.40;;
13197;SDS011;6664;52.514;13.440;2022-09-29T22:29:09;10.00;;;7.53;;
13197;SDS011;6664;52.514;13.440;2022-09-29T22:31:36;13.73;;;8.90;;
13197;SDS011;6664;52.514;13.440;2022-09-29T22:34:05;15.90;;;8.70;;
13197;SDS011;6664;52.514;13.440;2022-09-29T22:36:36;19.77;;;9.10;;
13197;SDS011;6664;52.514;13.440;2022-09-29T22:39:03;11.53;;;8.00;;
13197;SDS011;6664;52.514;13.440;2022-09-29T22:41:31;11.10;;;8.03;;
13197;SDS011;6664;52.514;13.440;2022-09-29T22:44:05;9.47;;;7.83;;
13197;SDS011;6664;52.514;13.440;2022-09-29T22:46:33;11.30;;;8.27;;
13197;SDS011;6664;52.514;13.440;2022-09-29T22:49:00;9.20;;;7.83;;
13197;SDS011;6664;52.514;13.440;2022-09-29T22:51:27;12.00;;;7.90;;
13197;SDS011;6664;52.514;13.440;2022-09-29T22:53:54;10.90;;;7.73;;
13197;SDS011;6664;52.514;13.440;2022-09-29T22:56:23;10.47;;;7.70;;
13197;SDS011;6664;52.514;13.440;2022-09-29T22:58:57;13.37;;;8.57;;
13197;SDS011;6664;52.514;13.440;2022-09-29T23:01:29;10.33;;;7.60;;
13197;SDS011;6664;52.514;13.440;2022-09-29T23:03:58;8.60;;;7.13;;
13197;SDS011;6664;52.514;13.440;2022-09-29T23:06:26;10.10;;;7.80;;
13197;SDS011;6664;52.514;13.440;2022-09-29T23:08:57;9.40;;;7.43;;
13197;SDS011;6664;52.514;13.440;2022-09-29T23:11:24;9.10;;;7.47;;
13197;SDS011;6664;52.514;13.440;2022-09-29T23:13:51;11.23;;;8.20;;
13197;SDS011;6664;52.514;13.440;2022-09-29T23:16:18;10.97;;;7.47;;
13197;SDS011;6664;52.514;13.440;2022-09-29T23:18:50;11.73;;;7.80;;
13197;SDS011;6664;52.514;13.440;2022-09-29T23:21:19;12.97;;;7.93;;
13197;SDS011;6664;52.514;13.440;2022-09-29T23:23:50;10.30;;;7.17;;
13197;SDS011;6664;52.514;13.440;2022-09-29T23:26:20;12.60;;;8.20;;
13197;SDS011;6664;52.514;13.440;2022-09-29T23:28:48;8.37;;;6.90;;
13197;SDS011;6664;52.514;13.440;2022-09-29T23:31:18;13.23;;;8.20;;
13197;SDS011;6664;52.514;13.440;2022-09-29T23:33:49;8.23;;;6.20;;
13197;SDS011;6664;52.514;13.440;2022-09-29T23:36:19;8.70;;;6.40;;
13197;SDS011;6664;52.514;13.440;2022-09-29T23:38:49;15.23;;;7.30;;
13197;SDS011;6664;52.514;13.440;2022-09-29T23:41:39;10.20;;;7.30;;
13197;SDS011;6664;52.514;13.440;2022-09-29T23:44:11;7.83;;;7.00;;
13197;SDS011;6664;52.514;13.440;2022-09-29T23:46:40;8.17;;;6.87;;
13197;SDS011;6664;52.514;13.440;2022-09-29T23:49:11;9.80;;;7.33;;
13197;SDS011;6664;52.514;13.440;2022-09-29T23:51:41;8.80;;;7.07;;
13197;SDS011;6664;52.514;13.440;2022-09-29T23:54:11;9.13;;;7.23;;
13197;SDS011;6664;52.514;13.440;2022-09-29T23:56:39;14.50;;;7.90;;
13197;SDS011;6664;52.514;13.440;2022-09-29T23:59:06;9.80;;;7.17;;
